Time;durP1;ratioP1;P1;durP2;ratioP2;P2;SDS_P1;SDS_P2;PMS_P1;PMS_P2;Temp;Humidity;BMP_temperature;BMP_pressure;BME280_temperature;BME280_humidity;BME280_pressure;Samples;Min_cycle;Max_cycle;Signal;HPM_P1;HPM_P2
2022/09/24 00:02:23;;;;;;;12.00;5.97;;;;;;;13.48;100.00;100322.41;8359525;28;20043;-54
2022/09/24 00:06:23;;;;;;;11.95;5.90;;;;;;;13.48;100.00;100325.13;8359683;28;20048;-50
2022/09/24 00:10:24;;;;;;;6.68;5.32;;;;;;;13.42;100.00;100323.06;8369503;28;20037;-51
2022/09/24 00:14:24;;;;;;;10.23;6.55;;;;;;;13.34;100.00;100331.16;8391621;28;20102;-50
2022/09/24 00:18:24;;;;;;;8.33;6.30;;;;;;;13.15;100.00;100331.41;8389009;28;20409;-51
2022/09/24 00:22:25;;;;;;;6.80;6.05;;;;;;;13.16;100.00;100338.53;8390583;28;20287;-51
2022/09/24 00:26:57;;;;;;;9.48;6.00;;;;;;;13.09;100.00;100343.75;8391127;28;20037;-51
2022/09/24 00:30:47;;;;;;;6.50;5.80;;;;;;;13.16;100.00;100341.25;8371442;28;20498;-52
2022/09/24 00:34:50;;;;;;;8.52;5.78;;;;;;;13.35;100.00;100341.00;8358690;28;20402;-51
2022/09/24 00:38:53;;;;;;;9.27;5.65;;;;;;;13.39;100.00;100334.25;8345584;28;20036;-52
2022/09/24 00:42:54;;;;;;;8.20;5.75;;;;;;;13.37;100.00;100330.84;8357082;28;20064;-51
2022/09/24 00:46:54;;;;;;;7.22;5.53;;;;;;;13.24;100.00;100328.56;8354447;28;20040;-50
2022/09/24 00:50:55;;;;;;;11.98;5.65;;;;;;;13.21;100.00;100330.78;8325011;28;20042;-51
2022/09/24 00:54:56;;;;;;;12.10;5.43;;;;;;;13.15;100.00;100323.28;8325345;28;20029;-53
2022/09/24 00:59:00;;;;;;;9.57;5.80;;;;;;;13.27;100.00;100325.53;8326454;28;20033;-51
2022/09/24 01:03:05;;;;;;;10.85;6.15;;;;;;;13.13;100.00;100317.16;8325646;28;20410;-51
2022/09/24 01:07:06;;;;;;;10.32;6.30;;;;;;;13.19;100.00;100313.78;8325376;28;20030;-54
2022/09/24 01:11:19;;;;;;;10.55;5.88;;;;;;;13.15;100.00;100305.09;8341627;28;20576;-53
2022/09/24 01:15:26;;;;;;;9.68;6.07;;;;;;;13.10;100.00;100312.03;8329595;28;20468;-52
2022/09/24 01:19:59;;;;;;;10.35;6.15;;;;;;;13.05;100.00;100295.41;8355339;28;20119;-50
2022/09/24 01:24:40;;;;;;;7.30;5.55;;;;;;;12.93;100.00;100299.38;8353204;28;20035;-51
2022/09/24 01:29:13;;;;;;;12.13;6.35;;;;;;;12.79;100.00;100298.09;8346107;28;20041;-53
2022/09/24 01:33:21;;;;;;;8.15;6.80;;;;;;;12.99;100.00;100296.03;8341266;28;20046;-51
2022/09/24 01:37:25;;;;;;;11.57;7.10;;;;;;;13.10;100.00;100293.03;8341243;28;20083;-50
2022/09/24 01:41:25;;;;;;;15.10;6.55;;;;;;;13.12;100.00;100293.75;8357319;28;20037;-51
2022/09/24 01:45:29;;;;;;;14.30;8.05;;;;;;;13.17;100.00;100288.66;8356910;28;20047;-51
2022/09/24 01:49:31;;;;;;;11.13;7.55;;;;;;;13.19;100.00;100289.34;8332676;28;20426;-51
2022/09/24 01:53:39;;;;;;;12.25;8.70;;;;;;;13.33;100.00;100280.59;8323271;28;20041;-51
2022/09/24 01:57:47;;;;;;;12.18;8.25;;;;;;;13.38;100.00;100283.66;8326775;28;20033;-54
2022/09/24 02:01:55;;;;;;;14.02;7.78;;;;;;;13.45;100.00;100287.44;8330362;28;20530;-53
2022/09/24 02:06:02;;;;;;;10.52;7.88;;;;;;;13.23;100.00;100271.72;8341424;28;20552;-50
2022/09/24 02:10:03;;;;;;;12.23;8.27;;;;;;;13.20;100.00;100263.91;8337007;28;20091;-53
2022/09/24 02:14:13;;;;;;;12.65;8.32;;;;;;;13.21;100.00;100271.06;8364454;28;20028;-51
2022/09/24 02:18:17;;;;;;;9.15;7.45;;;;;;;13.17;100.00;100269.66;8377950;28;20167;-53
2022/09/24 02:22:17;;;;;;;11.20;7.97;;;;;;;13.05;100.00;100270.97;8360664;28;20526;-50
2022/09/24 02:26:17;;;;;;;14.80;9.30;;;;;;;12.97;100.00;100268.19;8361558;28;20475;-50
2022/09/24 02:30:18;;;;;;;13.60;8.57;;;;;;;12.98;100.00;100259.03;8350930;28;20440;-51
2022/09/24 02:34:26;;;;;;;14.05;9.27;;;;;;;13.00;100.00;100267.91;8330317;28;20033;-49
2022/09/24 02:38:26;;;;;;;10.00;8.15;;;;;;;13.04;100.00;100264.69;8349169;28;20036;-48
2022/09/24 02:42:30;;;;;;;10.83;9.03;;;;;;;13.05;100.00;100260.13;8363363;28;20561;-53
2022/09/24 02:46:30;;;;;;;11.27;8.88;;;;;;;13.05;100.00;100260.13;8362817;28;20268;-50
2022/09/24 02:50:30;;;;;;;13.77;8.68;;;;;;;13.07;100.00;100252.66;8345090;28;20045;-50
2022/09/24 02:54:31;;;;;;;12.10;9.35;;;;;;;13.00;100.00;100246.19;8344643;28;20087;-50
2022/09/24 02:58:31;;;;;;;13.55;9.73;;;;;;;12.86;100.00;100234.03;8329992;28;20117;-53
2022/09/24 03:02:32;;;;;;;14.68;9.05;;;;;;;12.98;100.00;100229.16;8329233;28;20041;-51
2022/09/24 03:06:32;;;;;;;12.33;8.80;;;;;;;12.98;100.00;100237.31;8329057;28;20030;-52
2022/09/24 03:10:33;;;;;;;16.73;8.90;;;;;;;12.91;100.00;100230.84;8340239;28;20399;-50
2022/09/24 03:14:33;;;;;;;14.48;8.77;;;;;;;12.89;100.00;100232.84;8360158;28;20406;-54
2022/09/24 03:18:34;;;;;;;10.15;8.52;;;;;;;12.88;100.00;100220.31;8359962;28;20029;-50
2022/09/24 03:22:34;;;;;;;15.98;9.13;;;;;;;12.88;100.00;100225.75;8360471;28;20502;-53
2022/09/24 03:26:35;;;;;;;12.75;9.45;;;;;;;12.95;100.00;100221.34;8358530;28;20040;-50
2022/09/24 03:31:07;;;;;;;15.07;8.88;;;;;;;13.02;100.00;100222.47;8335845;28;20038;-50
2022/09/24 03:34:55;;;;;;;14.20;9.10;;;;;;;12.96;100.00;100220.38;8360721;28;20033;-50
2022/09/24 03:38:56;;;;;;;13.25;9.52;;;;;;;12.94;100.00;100216.94;8363553;28;20044;-52
2022/09/24 03:42:56;;;;;;;13.63;9.63;;;;;;;12.94;100.00;100208.81;8392427;28;20032;-54
2022/09/24 03:46:57;;;;;;;12.83;8.90;;;;;;;12.90;100.00;100219.13;8388191;28;20048;-53
2022/09/24 03:51:09;;;;;;;12.02;7.88;;;;;;;12.89;100.00;100224.72;8359723;28;20298;-54
2022/09/24 03:55:09;;;;;;;8.57;7.30;;;;;;;12.90;100.00;100213.69;8360431;28;20190;-54
2022/09/24 03:59:09;;;;;;;14.13;8.25;;;;;;;12.91;100.00;100217.28;8359957;28;20041;-49
2022/09/24 04:03:10;;;;;;;10.60;7.25;;;;;;;12.86;100.00;100223.19;8375495;28;20452;-49
2022/09/24 04:07:11;;;;;;;10.88;7.00;;;;;;;12.82;100.00;100220.97;8383204;28;20045;-51
2022/09/24 04:11:11;;;;;;;12.60;8.35;;;;;;;12.80;100.00;100209.41;8371197;28;20439;-48
2022/09/24 04:15:12;;;;;;;10.25;7.28;;;;;;;12.76;100.00;100211.63;8369603;28;20394;-52
2022/09/24 04:19:15;;;;;;;11.13;7.72;;;;;;;12.73;100.00;100206.53;8358769;28;20056;-52
2022/09/24 04:23:15;;;;;;;13.07;7.70;;;;;;;12.72;100.00;100209.38;8368467;28;20043;-51
2022/09/24 04:27:16;;;;;;;9.93;8.05;;;;;;;12.71;100.00;100207.66;8365768;28;20043;-49
2022/09/24 04:31:16;;;;;;;10.90;7.72;;;;;;;12.67;100.00;100206.31;8367576;28;20041;-52
2022/09/24 04:35:19;;;;;;;10.10;7.78;;;;;;;12.65;100.00;100195.63;8387012;28;20439;-49
2022/09/24 04:39:25;;;;;;;14.20;7.47;;;;;;;12.69;100.00;100193.44;8365394;28;20041;-49
2022/09/24 04:43:25;;;;;;;13.38;7.80;;;;;;;12.62;100.00;100192.38;8365448;28;20045;-52
2022/09/24 04:47:26;;;;;;;9.60;7.60;;;;;;;12.48;100.00;100190.28;8364796;28;20564;-48
2022/09/24 04:51:26;;;;;;;11.47;7.83;;;;;;;12.37;100.00;100187.81;8361250;28;20041;-49
2022/09/24 04:55:26;;;;;;;12.68;8.13;;;;;;;12.32;100.00;100190.19;8354641;28;20697;-49
2022/09/24 04:59:27;;;;;;;12.20;8.43;;;;;;;12.31;100.00;100193.88;8357133;28;20044;-49
2022/09/24 05:03:27;;;;;;;10.43;8.40;;;;;;;12.25;100.00;100187.25;8355077;28;20879;-48
2022/09/24 05:07:27;;;;;;;11.60;8.63;;;;;;;12.29;100.00;100190.50;8358978;28;20068;-51
2022/09/24 05:11:28;;;;;;;11.18;7.70;;;;;;;12.29;100.00;100185.06;8373798;28;20044;-50
2022/09/24 05:15:28;;;;;;;14.45;7.88;;;;;;;12.32;100.00;100190.19;8389686;28;20317;-51
2022/09/24 05:19:29;;;;;;;11.45;8.43;;;;;;;12.26;100.00;100190.81;8389524;28;20033;-49
2022/09/24 05:23:29;;;;;;;12.15;7.63;;;;;;;12.26;100.00;100201.66;8390221;28;20482;-52
2022/09/24 05:27:29;;;;;;;11.27;8.35;;;;;;;12.34;100.00;100199.84;8390336;28;20036;-49
2022/09/24 05:31:30;;;;;;;10.57;8.30;;;;;;;12.39;100.00;100196.66;8358529;28;20075;-49
2022/09/24 05:35:30;;;;;;;16.95;8.35;;;;;;;12.44;100.00;100189.72;8364213;28;20673;-49
2022/09/24 05:39:31;;;;;;;11.80;7.87;;;;;;;12.44;100.00;100192.44;8373235;28;20040;-51
2022/09/24 05:43:31;;;;;;;10.98;7.35;;;;;;;12.43;100.00;100200.72;8382434;28;20743;-50
2022/09/24 05:47:31;;;;;;;12.30;8.77;;;;;;;12.44;100.00;100205.16;8370045;28;20094;-48
2022/09/24 05:51:32;;;;;;;13.27;8.10;;;;;;;12.44;100.00;100205.16;8363610;28;20131;-50
2022/09/24 05:55:32;;;;;;;11.52;8.20;;;;;;;12.53;100.00;100204.22;8364016;28;20029;-49
2022/09/24 05:59:32;;;;;;;10.63;7.90;;;;;;;12.59;100.00;100209.00;8365139;28;20045;-48
2022/09/24 06:03:33;;;;;;;11.53;7.93;;;;;;;12.63;100.00;100210.34;8364085;28;20044;-51
2022/09/24 06:07:34;;;;;;;12.50;7.70;;;;;;;12.65;100.00;100213.75;8363732;28;20275;-50
2022/09/24 06:11:34;;;;;;;12.95;8.10;;;;;;;12.66;100.00;100207.31;8392851;28;20529;-49
2022/09/24 06:15:34;;;;;;;11.52;8.77;;;;;;;12.72;100.00;100209.38;8395062;28;20517;-50
2022/09/24 06:19:35;;;;;;;11.82;8.20;;;;;;;12.75;100.00;100203.66;8394253;28;20064;-48
2022/09/24 06:23:37;;;;;;;11.87;7.93;;;;;;;12.68;100.00;100210.72;8395162;28;20100;-51
2022/09/24 06:27:37;;;;;;;12.38;8.55;;;;;;;12.73;100.00;100208.38;8393734;28;20329;-49
2022/09/24 06:31:37;;;;;;;14.48;8.65;;;;;;;12.74;100.00;100210.91;8363489;28;20033;-51
2022/09/24 06:35:41;;;;;;;12.87;8.50;;;;;;;12.81;100.00;100219.28;8372293;28;20044;-48
2022/09/24 06:39:41;;;;;;;12.05;8.05;;;;;;;12.80;100.00;100222.97;8381908;28;20413;-49
2022/09/24 06:43:42;;;;;;;10.13;8.60;;;;;;;12.84;100.00;100229.81;8377302;28;20116;-50
2022/09/24 06:47:42;;;;;;;11.93;8.60;;;;;;;12.86;100.00;100233.19;8370418;28;20637;-50
2022/09/24 06:51:42;;;;;;;9.60;7.68;;;;;;;12.91;100.00;100238.97;8362833;28;20045;-49
2022/09/24 06:55:43;;;;;;;12.05;8.05;;;;;;;13.05;100.00;100233.00;8360740;28;20167;-48
2022/09/24 06:59:44;;;;;;;13.32;8.73;;;;;;;13.01;100.00;100237.03;8361758;28;20056;-48
2022/09/24 07:03:44;;;;;;;11.38;8.27;;;;;;;13.16;100.00;100240.81;8367424;28;20123;-49
2022/09/24 07:07:45;;;;;;;11.55;7.72;;;;;;;13.30;100.00;100242.91;8357115;28;20033;-50
2022/09/24 07:11:45;;;;;;;13.27;7.85;;;;;;;13.37;100.00;100238.53;8379801;28;20029;-49
2022/09/24 07:15:48;;;;;;;13.75;8.00;;;;;;;13.48;100.00;100240.94;8389426;28;20062;-49
2022/09/24 07:19:48;;;;;;;14.93;8.43;;;;;;;13.50;100.00;100238.88;8364216;28;20041;-51
2022/09/24 07:23:49;;;;;;;12.90;8.13;;;;;;;13.52;100.00;100247.72;8357180;28;20044;-48
2022/09/24 07:27:49;;;;;;;13.68;8.85;;;;;;;13.53;100.00;100244.00;8361418;28;20054;-49
2022/09/24 07:31:50;;;;;;;11.82;8.10;;;;;;;13.65;100.00;100234.50;8356815;28;20033;-52
2022/09/24 07:35:50;;;;;;;12.48;7.88;;;;;;;13.71;100.00;100236.56;8357342;28;20804;-50
2022/09/24 07:39:50;;;;;;;12.50;8.35;;;;;;;13.65;100.00;100242.66;8368875;28;20465;-49
2022/09/24 07:43:51;;;;;;;17.63;9.10;;;;;;;13.75;100.00;100232.47;8388415;28;20084;-48
2022/09/24 07:47:57;;;;;;;13.93;9.38;;;;;;;13.85;100.00;100238.63;8377414;28;20804;-50
2022/09/24 07:51:59;;;;;;;16.88;8.20;;;;;;;14.01;100.00;100241.34;8356473;28;20142;-49
2022/09/24 07:56:00;;;;;;;17.48;8.57;;;;;;;14.28;100.00;100240.19;8355817;28;20060;-51
2022/09/24 08:00:00;;;;;;;14.52;8.43;;;;;;;14.44;100.00;100246.47;8356319;28;20055;-50
2022/09/24 08:04:03;;;;;;;17.10;8.30;;;;;;;14.67;100.00;100242.00;8355927;28;20037;-49
2022/09/24 08:08:03;;;;;;;11.32;8.25;;;;;;;14.67;100.00;100247.44;8355847;28;20087;-53
2022/09/24 08:12:04;;;;;;;13.75;8.93;;;;;;;14.98;100.00;100250.25;8378143;28;20037;-50
2022/09/24 08:16:05;;;;;;;19.17;10.38;;;;;;;15.08;100.00;100250.91;8374315;28;20041;-49
2022/09/24 08:20:06;;;;;;;14.15;9.90;;;;;;;15.06;100.00;100251.06;8357010;28;20085;-51
2022/09/24 08:24:06;;;;;;;16.65;9.38;;;;;;;15.12;100.00;100258.53;8351850;28;20032;-50
2022/09/24 08:28:11;;;;;;;16.27;9.60;;;;;;;15.20;100.00;100261.25;8356354;28;20029;-49
2022/09/24 08:32:12;;;;;;;16.85;9.82;;;;;;;15.44;100.00;100263.88;8352817;28;20272;-51
2022/09/24 08:36:13;;;;;;;14.48;9.10;;;;;;;15.62;100.00;100258.19;8358984;28;20486;-48
2022/09/24 08:40:18;;;;;;;15.77;9.10;;;;;;;15.88;100.00;100249.63;8365900;28;20441;-53
2022/09/24 08:48:41;;;;;;;24.38;11.57;;;;;;;16.27;99.26;100255.81;8330412;27;20397;-48
2022/09/24 08:56:55;;;;;;;12.40;8.93;;;;;;;16.69;94.61;100262.47;8351140;27;20392;-49
2022/09/24 09:05:51;;;;;;;15.98;10.05;;;;;;;17.30;94.20;100256.63;8360724;27;20811;-48
2022/09/24 09:10:03;;;;;;;16.05;9.88;;;;;;;17.37;91.12;100256.72;8350382;28;20049;-48
2022/09/24 09:14:13;;;;;;;15.35;11.18;;;;;;;17.76;90.65;100265.44;8334392;28;20056;-51
2022/09/24 09:18:22;;;;;;;17.08;11.27;;;;;;;17.94;88.67;100265.88;8337801;28;20041;-50
2022/09/24 09:22:30;;;;;;;19.52;12.52;;;;;;;18.21;88.79;100273.28;8365697;28;20123;-52
2022/09/24 09:26:30;;;;;;;18.50;12.43;;;;;;;18.11;86.02;100267.28;8381145;28;20379;-49
2022/09/24 09:30:42;;;;;;;19.15;12.27;;;;;;;18.18;85.19;100272.84;8386206;28;20029;-51
2022/09/24 09:35:02;;;;;;;20.60;12.43;;;;;;;19.44;81.55;100273.44;8380580;28;20033;-52
2022/09/24 09:39:27;;;;;;;21.75;12.52;;;;;;;18.85;79.17;100277.66;8341388;28;20091;-49
2022/09/24 09:43:28;;;;;;;25.25;15.57;;;;;;;18.44;81.36;100273.97;8315481;28;20111;-51
2022/09/24 09:47:40;;;;;;;18.27;12.75;;;;;;;18.34;82.04;100281.63;8317753;28;20375;-50
2022/09/24 09:51:41;;;;;;;22.30;13.98;;;;;;;18.26;83.09;100276.28;8318167;28;20041;-50
2022/09/24 09:55:42;;;;;;;22.80;13.73;;;;;;;18.19;84.74;100280.00;8408623;28;20504;-51
2022/09/24 09:59:47;;;;;;;16.90;10.93;;;;;;;18.01;80.27;100274.97;8394349;28;20059;-51
2022/09/24 10:03:48;;;;;;;19.58;10.82;;;;;;;17.75;79.74;100271.94;8374951;28;20041;-49
2022/09/24 10:07:50;;;;;;;16.70;10.07;;;;;;;17.78;79.21;100276.19;8373078;28;20505;-50
2022/09/24 10:11:50;;;;;;;13.82;9.63;;;;;;;17.87;80.28;100270.38;8374033;28;20101;-48
2022/09/24 10:15:55;;;;;;;16.53;9.70;;;;;;;17.90;80.17;100275.47;8356948;28;20129;-50
2022/09/24 10:19:56;;;;;;;18.45;10.85;;;;;;;17.73;81.09;100271.28;8353719;28;20633;-49
2022/09/24 10:24:00;;;;;;;14.00;9.13;;;;;;;17.75;80.68;100263.72;8354778;28;20044;-51
2022/09/24 10:32:28;;;;;;;14.52;9.55;;;;;;;17.83;81.09;100252.69;8363223;28;20522;-51
2022/09/24 10:36:31;;;;;;;14.55;9.27;;;;;;;17.70;80.89;100259.88;8296592;28;20034;-53
2022/09/24 10:40:39;;;;;;;16.70;10.48;;;;;;;17.57;81.85;100264.16;8309080;28;20040;-53
2022/09/24 10:44:40;;;;;;;13.73;9.35;;;;;;;17.56;82.37;100256.16;8321982;28;20052;-52
2022/09/24 10:48:44;;;;;;;14.68;9.68;;;;;;;17.48;82.66;100253.53;8303148;28;20048;-51
2022/09/24 10:52:53;;;;;;;17.45;11.68;;;;;;;17.29;85.28;100256.81;8292187;28;20038;-52
2022/09/24 10:56:56;;;;;;;17.27;11.75;;;;;;;17.36;87.28;100257.75;8303897;28;20034;-54
2022/09/24 11:01:13;;;;;;;20.17;12.85;;;;;;;17.28;84.55;100253.25;8319672;28;20040;-53
2022/09/24 11:05:20;;;;;;;22.00;13.10;;;;;;;17.43;85.52;100250.53;8326543;28;20037;-52
2022/09/24 11:09:37;;;;;;;24.50;14.85;;;;;;;17.53;87.06;100251.91;8319076;28;20049;-54
2022/09/24 11:13:49;;;;;;;23.30;15.45;;;;;;;17.67;83.61;100247.47;8287391;28;20613;-52
2022/09/24 11:23:16;;;;;;;24.10;15.25;;;;;;;18.00;81.30;100247.81;8390086;27;20395;-53
2022/09/24 11:27:44;;;;;;;23.40;14.55;;;;;;;18.21;82.38;100245.91;8380025;28;20037;-53
2022/09/24 11:32:11;;;;;;;24.58;14.70;;;;;;;18.11;82.31;100245.41;8378491;28;20470;-50
2022/09/24 11:36:35;;;;;;;20.27;13.65;;;;;;;17.91;83.49;100249.84;8379678;28;20500;-52
2022/09/24 11:40:55;;;;;;;21.90;13.50;;;;;;;17.93;84.82;100250.47;8376754;28;20147;-52
2022/09/24 11:45:36;;;;;;;24.38;14.57;;;;;;;17.86;81.78;100246.81;8382132;28;20047;-52
2022/09/24 11:50:01;;;;;;;22.63;14.77;;;;;;;17.77;83.08;100242.50;8379777;28;20036;-52
2022/09/24 11:54:12;;;;;;;25.60;14.73;;;;;;;17.75;84.89;100244.59;8378275;28;20033;-51
2022/09/24 11:58:18;;;;;;;25.85;16.30;;;;;;;17.68;86.16;100238.19;8374560;28;20083;-49
2022/09/24 12:02:27;;;;;;;27.55;16.75;;;;;;;17.65;86.12;100235.84;8380772;28;20123;-53
2022/09/24 12:06:35;;;;;;;23.98;16.08;;;;;;;17.57;87.04;100233.25;8381429;28;20123;-52
2022/09/24 12:10:45;;;;;;;28.08;17.05;;;;;;;17.51;87.08;100231.28;8379635;28;20052;-53
2022/09/24 12:14:54;;;;;;;27.38;16.75;;;;;;;17.51;87.81;100228.56;8380693;28;20131;-53
2022/09/24 12:19:07;;;;;;;30.50;17.17;;;;;;;17.50;89.34;100229.56;8380816;28;20056;-51
2022/09/24 12:23:13;;;;;;;27.95;16.95;;;;;;;17.61;89.79;100223.63;8380944;28;20044;-52
2022/09/24 12:27:19;;;;;;;27.48;17.05;;;;;;;17.76;87.88;100227.16;8378352;28;20045;-51
2022/09/24 12:33:07;;;;;;;30.70;16.20;;;;;;;17.84;85.44;100226.19;8373153;28;20039;-51
2022/09/24 12:40:54;;;;;;;19.95;12.93;;;;;;;17.82;82.83;100223.66;8299027;28;20493;-50
2022/09/24 12:44:58;;;;;;;18.75;12.45;;;;;;;17.99;81.17;100224.25;8295790;28;20038;-48
2022/09/24 12:48:59;;;;;;;21.73;12.43;;;;;;;18.08;80.92;100223.91;8290600;28;20038;-50
2022/09/24 12:53:00;;;;;;;22.45;13.95;;;;;;;18.01;81.46;100223.00;8284550;28;20125;-49
2022/09/24 12:57:07;;;;;;;21.70;12.93;;;;;;;17.98;82.04;100212.44;8289892;28;20038;-49
2022/09/24 13:01:30;;;;;;;20.48;12.45;;;;;;;18.11;81.78;100218.03;8305857;28;20034;-49
2022/09/24 13:05:46;;;;;;;21.83;13.52;;;;;;;18.09;79.62;100214.66;8274869;28;20030;-53
2022/09/24 13:09:46;;;;;;;23.50;13.15;;;;;;;18.06;81.41;100214.22;8284276;28;20545;-50
2022/09/24 13:18:24;;;;;;;19.83;11.05;;;;;;;17.94;79.65;100210.28;8294899;28;20964;-51
2022/09/24 13:22:30;;;;;;;17.02;10.32;;;;;;;17.99;79.28;100202.38;8260922;28;20553;-49
2022/09/24 13:26:33;;;;;;;20.55;12.20;;;;;;;17.95;79.63;100206.50;8282633;28;20053;-49
2022/09/24 13:30:39;;;;;;;20.85;12.70;;;;;;;17.89;80.39;100210.03;8278582;28;20091;-48
2022/09/24 13:34:44;;;;;;;22.88;13.32;;;;;;;17.74;81.40;100209.22;8284091;28;20196;-52
2022/09/24 13:39:23;;;;;;;22.13;14.43;;;;;;;17.69;83.04;100203.50;8251711;28;20571;-49
2022/09/24 13:43:48;;;;;;;22.80;13.80;;;;;;;17.78;81.96;100211.38;8280866;28;20034;-49
2022/09/24 13:47:56;;;;;;;22.48;14.55;;;;;;;17.74;82.86;100217.44;8286448;28;20030;-50
2022/09/24 13:52:11;;;;;;;21.45;13.73;;;;;;;17.66;83.75;100215.69;8270326;28;20034;-49
2022/09/24 13:56:15;;;;;;;24.10;14.43;;;;;;;17.62;82.52;100217.09;8282063;28;20026;-49
2022/09/24 14:00:20;;;;;;;21.42;14.48;;;;;;;17.69;82.57;100218.03;8295673;28;20562;-48
2022/09/24 14:04:21;;;;;;;;;;;;;;;17.67;82.70;100203.72;8291094;28;20044;-49
2022/09/24 14:08:23;;;;;;;23.50;14.80;;;;;;;17.71;83.17;100209.66;8270746;28;19926;-52
2022/09/24 14:12:24;;;;;;;23.48;13.82;;;;;;;17.70;84.14;100211.53;8280375;28;20057;-48
2022/09/24 14:16:25;;;;;;;30.40;15.02;;;;;;;17.70;83.33;100207.94;8279668;28;20049;-52
2022/09/24 14:20:33;;;;;;;27.58;15.25;;;;;;;17.58;84.86;100200.25;8280924;28;20057;-50
2022/09/24 14:24:56;;;;;;;24.90;15.63;;;;;;;17.62;85.61;100206.16;8279848;28;20065;-48
2022/09/24 14:29:02;;;;;;;24.37;15.03;;;;;;;17.64;84.55;100201.34;8267509;28;20065;-49
2022/09/24 14:33:12;;;;;;;21.88;14.40;;;;;;;17.66;83.97;100202.03;8273318;28;20041;-50
2022/09/24 14:37:22;;;;;;;22.02;13.30;;;;;;;17.70;84.21;100200.59;8256063;28;20074;-49
2022/09/24 14:41:27;;;;;;;15.77;11.55;;;;;;;17.73;83.16;100202.94;8252539;28;20038;-50
2022/09/24 14:45:33;;;;;;;18.42;12.40;;;;;;;17.70;82.66;100203.31;8258581;28;20117;-52
2022/09/24 14:49:44;;;;;;;22.27;12.60;;;;;;;17.67;81.80;100200.13;8256790;28;20030;-49
2022/09/24 14:53:44;;;;;;;19.83;11.98;;;;;;;17.67;82.16;100198.25;8258381;28;20034;-48
2022/09/24 14:57:48;;;;;;;19.15;12.10;;;;;;;17.64;81.80;100204.09;8259801;28;20045;-50
2022/09/24 15:01:49;;;;;;;25.27;13.67;;;;;;;17.59;82.44;100209.28;8288984;28;20041;-53
2022/09/24 15:05:51;;;;;;;20.77;13.60;;;;;;;17.60;82.12;100202.81;8289374;28;20527;-51
2022/09/24 15:09:56;;;;;;;25.48;14.82;;;;;;;17.55;83.72;100206.09;8282186;28;20038;-52
2022/09/24 15:14:00;;;;;;;25.60;16.88;;;;;;;17.57;83.84;100204.00;8257747;28;20118;-51
2022/09/24 15:18:04;;;;;;;21.73;14.15;;;;;;;17.62;84.29;100199.88;8256724;28;20138;-50
2022/09/24 15:22:05;;;;;;;21.80;14.85;;;;;;;17.59;84.83;100201.09;8256337;28;20539;-54
2022/09/24 15:26:06;;;;;;;23.25;14.40;;;;;;;17.60;85.52;100197.31;8257256;28;20442;-52
2022/09/24 15:30:11;;;;;;;22.88;14.88;;;;;;;17.54;86.36;100204.38;8277648;28;20033;-53
2022/09/24 15:34:12;;;;;;;20.80;14.07;;;;;;;17.52;87.20;100194.69;8251811;28;20034;-51
2022/09/24 15:38:15;;;;;;;23.83;15.25;;;;;;;17.49;87.35;100195.09;8255459;28;20057;-53
2022/09/24 15:42:20;;;;;;;21.30;12.90;;;;;;;17.42;87.35;100200.44;8256686;28;20376;-51
2022/09/24 15:46:21;;;;;;;19.80;12.18;;;;;;;17.41;86.90;100197.88;8256624;28;20625;-53
2022/09/24 15:50:22;;;;;;;20.92;11.75;;;;;;;17.37;87.22;100202.06;8245484;28;20046;-50
2022/09/24 15:54:23;;;;;;;18.48;12.05;;;;;;;17.35;85.58;100199.50;8256522;28;20093;-51
2022/09/24 15:58:24;;;;;;;18.63;11.63;;;;;;;17.32;86.69;100210.81;8264597;28;20058;-54
2022/09/24 16:02:31;;;;;;;16.75;11.55;;;;;;;17.31;87.36;100202.81;8286808;28;20495;-50
2022/09/24 16:06:32;;;;;;;20.20;11.50;;;;;;;17.24;88.05;100199.16;8285792;28;20113;-52
2022/09/24 16:10:32;;;;;;;19.05;11.27;;;;;;;17.23;88.22;100206.50;8273902;28;20034;-54
2022/09/24 16:14:33;;;;;;;17.45;11.23;;;;;;;17.17;88.47;100200.97;8255349;28;20030;-52
2022/09/24 16:18:38;;;;;;;19.75;13.07;;;;;;;17.09;88.32;100193.72;8255264;28;20517;-53
2022/09/24 16:22:39;;;;;;;20.30;12.77;;;;;;;17.12;88.89;100209.75;8254103;28;20040;-52
2022/09/24 16:26:41;;;;;;;24.98;15.82;;;;;;;17.06;89.46;100209.63;8257387;28;20034;-52
2022/09/24 16:30:41;;;;;;;28.98;14.68;;;;;;;17.02;90.27;100208.34;8281514;28;20180;-50
2022/09/24 16:34:43;;;;;;;27.88;15.18;;;;;;;16.97;90.73;100210.78;8272486;28;20045;-54
2022/09/24 16:38:43;;;;;;;24.63;15.88;;;;;;;16.96;91.61;100212.66;8251507;28;20055;-51
2022/09/24 16:42:46;;;;;;;24.50;15.65;;;;;;;16.94;91.94;100227.53;8255813;28;20133;-50
2022/09/24 16:46:47;;;;;;;23.05;15.95;;;;;;;16.89;92.79;100219.06;8254724;28;20036;-51
2022/09/24 16:50:48;;;;;;;24.30;15.40;;;;;;;16.83;93.65;100225.25;8254415;28;20104;-50
2022/09/24 16:54:49;;;;;;;27.45;16.17;;;;;;;16.79;94.47;100232.16;8254712;28;20046;-53
2022/09/24 16:58:51;;;;;;;31.63;18.63;;;;;;;16.72;94.52;100223.00;8242703;28;20030;-53
2022/09/24 17:02:52;;;;;;;26.08;17.23;;;;;;;16.69;96.00;100228.84;8285868;28;20183;-52
2022/09/24 17:06:55;;;;;;;26.75;17.55;;;;;;;16.66;96.48;100223.75;8273236;28;20046;-54
2022/09/24 17:10:56;;;;;;;25.58;17.48;;;;;;;16.63;97.15;100224.13;8252868;28;20432;-52
2022/09/24 17:14:57;;;;;;;32.58;18.63;;;;;;;16.60;97.91;100224.50;8270651;28;20057;-55
2022/09/24 17:18:57;;;;;;;31.85;19.10;;;;;;;16.57;98.44;100225.72;8252280;28;20113;-52
2022/09/24 17:22:57;;;;;;;28.10;18.63;;;;;;;16.54;99.08;100226.09;8253978;28;20190;-51
2022/09/24 17:26:58;;;;;;;29.90;18.30;;;;;;;16.54;99.18;100230.72;8251933;28;20312;-50
2022/09/24 17:30:58;;;;;;;25.67;16.30;;;;;;;16.51;99.35;100228.34;8282621;28;20062;-51
2022/09/24 17:34:59;;;;;;;26.88;17.55;;;;;;;16.55;99.40;100226.94;8250876;28;20042;-50
2022/09/24 17:38:59;;;;;;;24.70;16.75;;;;;;;16.51;99.27;100236.53;8252272;28;20048;-49
2022/09/24 17:43:00;;;;;;;29.15;18.20;;;;;;;16.48;99.19;100239.63;8254218;28;20037;-52
2022/09/24 17:47:01;;;;;;;29.98;17.83;;;;;;;16.47;99.24;100246.13;8253404;28;20503;-51
2022/09/24 17:51:04;;;;;;;28.48;17.52;;;;;;;16.46;99.42;100244.41;8253017;28;20097;-49
2022/09/24 17:55:07;;;;;;;29.50;16.83;;;;;;;16.39;99.55;100251.63;8253712;28;20579;-52
2022/09/24 17:59:09;;;;;;;28.83;17.35;;;;;;;16.34;100.00;100252.16;8264407;28;20026;-50
2022/09/24 18:03:10;;;;;;;25.20;17.27;;;;;;;16.29;100.00;100264.69;8287842;28;20346;-51
2022/09/24 18:07:10;;;;;;;28.35;17.58;;;;;;;16.26;100.00;100271.34;8290353;28;20081;-52
2022/09/24 18:11:17;;;;;;;29.00;17.33;;;;;;;16.13;98.77;100264.81;8274061;28;20046;-49
2022/09/24 18:15:18;;;;;;;24.63;15.02;;;;;;;16.00;99.25;100275.47;8259826;28;20046;-53
2022/09/24 18:19:18;;;;;;;26.20;17.02;;;;;;;15.74;100.00;100276.66;8258996;28;20030;-50
2022/09/24 18:23:20;;;;;;;24.80;16.15;;;;;;;15.60;100.00;100269.25;8259388;28;20365;-50
2022/09/24 18:27:21;;;;;;;22.92;14.50;;;;;;;15.43;100.00;100277.66;8258884;28;20034;-53
2022/09/24 18:31:28;;;;;;;24.83;15.00;;;;;;;15.36;100.00;100271.19;8252226;28;20042;-51
2022/09/24 18:35:29;;;;;;;19.63;13.98;;;;;;;15.26;100.00;100286.91;8244185;28;20339;-50
2022/09/24 18:39:29;;;;;;;22.52;14.77;;;;;;;15.17;100.00;100286.09;8256915;28;20043;-50
2022/09/24 18:43:30;;;;;;;19.17;13.52;;;;;;;15.20;100.00;100284.91;8261997;28;20162;-50
2022/09/24 18:47:30;;;;;;;21.88;14.52;;;;;;;15.19;100.00;100291.38;8245834;28;20035;-50
2022/09/24 18:51:33;;;;;;;23.23;15.10;;;;;;;15.16;100.00;100292.56;8247844;28;20042;-53
2022/09/24 18:55:38;;;;;;;28.65;16.92;;;;;;;15.01;100.00;100299.75;8272329;28;20038;-50
2022/09/24 18:59:43;;;;;;;26.25;17.65;;;;;;;14.86;100.00;100297.94;8257122;28;20056;-48
2022/09/24 19:03:43;;;;;;;35.67;22.13;;;;;;;14.87;100.00;100302.34;8263152;28;20034;-48